首页
METAR-TAF:

METAR-TAF

机场 :

上海浦东国际机场

上海 / 浦东, 中华人民共和国

纬度: 31-07N, 经度: 121-46E, 海拔: 4米

当前天气观测

该预报发布于11分钟前的09:00 UTC
风速8节,风向西转西北
温度 10°C
湿度 71%
气压 1021 hPa
能見度: 5000
轻雾

METAR: ZSPD 190900Z 29004MPS 5000 BR NSC 10/05 Q1021 NOSIG

时间: 17:11 (09:11 UTC)

预报

该预报发布于5小时和54分钟前的03:17 UTC
预报有效从19日的 06点(UTC)到 20日的 06点(UTC)
风速8节,风向西北
能見度: 5000
多云层高于1500英尺
轻雾

TAF: ZSPD 190317Z 1906/2006 31004MPS 5000 BR BKN015 TX12/1906Z TN04/1921Z

超过4000个机场的气象观测和天气预报(METAR&TAF报告)。

可查询的气象台以黄色和红色小点在地图上表示。

将鼠标移到小点上方,可查看气象台名称。

然后点击查看天气观测和预报。

如需切换地图:点击带黑十字的绿色按钮放大地图;点击带横线的绿色按钮缩小地图;或者点击绿色箭头查看邻近地区的地图。


METAR-TAF: